createdAt,value
2023-10-23T00:02:10.700Z,11.03
2023-10-23T00:04:37.586Z,11.02
2023-10-23T00:07:04.650Z,11.13
2023-10-23T00:09:31.227Z,11.00
2023-10-23T00:11:57.733Z,10.86
2023-10-23T00:14:24.310Z,10.87
2023-10-23T00:16:51.542Z,10.85
2023-10-23T00:19:18.190Z,10.85
2023-10-23T00:21:45.655Z,10.86
2023-10-23T00:24:12.248Z,10.85
2023-10-23T00:26:38.750Z,10.69
2023-10-23T00:29:05.401Z,10.68
2023-10-23T00:31:32.021Z,10.78
2023-10-23T00:33:58.691Z,10.73
2023-10-23T00:36:25.272Z,10.79
2023-10-23T00:38:53.280Z,10.91
2023-10-23T00:41:19.790Z,10.75
2023-10-23T00:43:46.396Z,10.70
2023-10-23T00:46:19.907Z,10.62
2023-10-23T00:48:50.823Z,10.61
2023-10-23T00:51:20.649Z,10.66
2023-10-23T00:53:48.133Z,10.54
2023-10-23T00:56:15.058Z,10.59
2023-10-23T00:58:43.661Z,10.58
2023-10-23T01:01:13.286Z,10.45
2023-10-23T01:03:41.069Z,10.29
2023-10-23T01:06:07.878Z,10.29
2023-10-23T01:08:34.695Z,10.34
2023-10-23T01:11:01.301Z,10.42
2023-10-23T01:13:28.213Z,10.32
2023-10-23T01:15:55.119Z,10.32
2023-10-23T01:18:21.826Z,10.42
2023-10-23T01:20:49.443Z,10.46
2023-10-23T01:23:16.049Z,10.48
2023-10-23T01:25:42.708Z,10.63
2023-10-23T01:28:09.311Z,10.60
2023-10-23T01:30:35.985Z,10.34
2023-10-23T01:33:02.709Z,10.35
2023-10-23T01:35:29.224Z,10.32
2023-10-23T01:37:56.509Z,10.25
2023-10-23T01:40:24.238Z,10.24
2023-10-23T01:42:51.033Z,10.23
2023-10-23T01:45:20.064Z,10.30
2023-10-23T01:47:47.329Z,10.09
2023-10-23T01:50:13.908Z,10.08
2023-10-23T01:52:42.469Z,10.12
2023-10-23T01:55:09.879Z,10.19
2023-10-23T01:57:36.547Z,10.17
2023-10-23T02:00:05.745Z,10.05
2023-10-23T02:02:42.168Z,9.88
2023-10-23T02:05:09.216Z,9.93
2023-10-23T02:07:35.907Z,9.77
2023-10-23T02:10:02.600Z,9.60
2023-10-23T02:12:29.212Z,9.79
2023-10-23T02:14:56.834Z,9.75
2023-10-23T02:17:23.484Z,9.59
2023-10-23T02:19:50.150Z,9.61
2023-10-23T02:22:19.689Z,9.78
2023-10-23T02:24:47.069Z,9.83
2023-10-23T02:27:14.340Z,9.84
2023-10-23T02:29:43.835Z,9.81
2023-10-23T02:32:12.259Z,9.76
2023-10-23T02:34:39.550Z,9.76
2023-10-23T02:37:08.354Z,9.76
2023-10-23T02:39:34.919Z,9.57
2023-10-23T02:42:02.600Z,9.60
2023-10-23T02:44:29.607Z,9.55
2023-10-23T02:46:56.430Z,9.48
2023-10-23T02:49:24.388Z,9.55
2023-10-23T02:51:51.093Z,9.49
2023-10-23T02:54:17.855Z,9.37
2023-10-23T02:56:44.421Z,9.41
2023-10-23T02:59:11.132Z,9.27
2023-10-23T03:01:39.042Z,9.33
2023-10-23T03:04:06.202Z,9.29
2023-10-23T03:06:34.327Z,9.38
2023-10-23T03:09:00.911Z,9.48
2023-10-23T03:11:27.499Z,9.36
2023-10-23T03:13:54.047Z,9.28
2023-10-23T03:16:20.806Z,9.28
2023-10-23T03:18:47.415Z,9.39
2023-10-23T03:21:14.104Z,9.49
2023-10-23T03:23:40.635Z,9.31
2023-10-23T03:26:07.205Z,9.38
2023-10-23T03:28:33.840Z,9.32
2023-10-23T03:31:04.632Z,9.08
2023-10-23T03:33:31.627Z,9.09
2023-10-23T03:35:58.252Z,9.12
2023-10-23T03:38:24.853Z,8.92
2023-10-23T03:40:59.360Z,8.94
2023-10-23T03:43:26.358Z,8.97
2023-10-23T03:45:53.028Z,9.16
2023-10-23T03:48:19.922Z,9.20
2023-10-23T03:50:46.608Z,9.12
2023-10-23T03:53:13.155Z,9.20
2023-10-23T03:55:39.846Z,9.04
2023-10-23T03:58:06.437Z,9.10
2023-10-23T04:00:33.077Z,9.09
2023-10-23T04:02:59.796Z,9.00
2023-10-23T04:05:26.423Z,8.78
2023-10-23T04:07:53.036Z,8.91
2023-10-23T04:10:19.680Z,8.88
2023-10-23T04:12:46.309Z,8.99
2023-10-23T04:15:12.864Z,8.92
2023-10-23T04:17:39.466Z,8.86
2023-10-23T04:20:06.685Z,8.74
2023-10-23T04:22:33.321Z,8.66
2023-10-23T04:25:00.023Z,8.82
2023-10-23T04:27:26.645Z,8.71
2023-10-23T04:29:54.470Z,8.56
2023-10-23T04:32:21.021Z,8.45
2023-10-23T04:34:47.548Z,8.53
2023-10-23T04:37:14.081Z,8.36
2023-10-23T04:39:40.788Z,8.39
2023-10-23T04:42:07.587Z,8.43
2023-10-23T04:44:35.130Z,8.28
2023-10-23T04:47:01.743Z,8.33
2023-10-23T04:49:28.625Z,8.39
2023-10-23T04:51:55.349Z,8.25
2023-10-23T04:54:21.992Z,8.25
2023-10-23T04:56:48.604Z,8.28
2023-10-23T04:59:15.192Z,8.36
2023-10-23T05:01:41.847Z,8.38
2023-10-23T05:04:08.633Z,8.35
2023-10-23T05:06:35.420Z,8.61
2023-10-23T05:09:02.092Z,8.59
2023-10-23T05:11:28.761Z,8.69
2023-10-23T05:13:55.321Z,8.46
2023-10-23T05:16:22.050Z,8.35
2023-10-23T05:18:48.897Z,8.39
2023-10-23T05:21:15.673Z,8.56
2023-10-23T05:23:43.039Z,8.61
2023-10-23T05:26:12.771Z,8.41
2023-10-23T05:28:41.446Z,8.33
2023-10-23T05:31:15.613Z,8.26
2023-10-23T05:33:42.289Z,8.26
2023-10-23T05:36:11.023Z,8.25
2023-10-23T05:38:38.219Z,8.00
2023-10-23T05:41:08.905Z,8.32
2023-10-23T05:43:35.697Z,8.41
2023-10-23T05:46:04.513Z,8.03
2023-10-23T05:48:32.107Z,7.68
2023-10-23T05:51:00.030Z,8.16
2023-10-23T05:53:27.309Z,8.33
2023-10-23T05:55:54.388Z,8.28
2023-10-23T05:58:21.364Z,8.31
2023-10-23T06:00:48.063Z,8.46
2023-10-23T06:03:14.732Z,8.57
2023-10-23T06:05:42.297Z,8.51
2023-10-23T06:08:10.140Z,8.56
2023-10-23T06:10:46.571Z,8.24
2023-10-23T06:13:13.206Z,8.29
2023-10-23T06:15:40.765Z,8.54
2023-10-23T06:18:07.852Z,8.62
2023-10-23T06:20:35.493Z,8.52
2023-10-23T06:23:02.524Z,8.58
2023-10-23T06:25:32.219Z,8.43
2023-10-23T06:27:59.965Z,8.58
2023-10-23T06:30:26.803Z,8.86
2023-10-23T06:32:53.447Z,9.00
2023-10-23T06:35:19.963Z,9.09
2023-10-23T06:37:46.667Z,9.16
2023-10-23T06:40:13.337Z,9.01
2023-10-23T06:42:40.000Z,9.04
2023-10-23T06:45:07.714Z,9.06
2023-10-23T06:47:35.128Z,8.76
2023-10-23T06:50:03.692Z,8.84
2023-10-23T06:52:30.182Z,9.12
2023-10-23T06:54:56.746Z,9.01
2023-10-23T06:57:23.446Z,9.25
2023-10-23T06:59:51.504Z,9.22
2023-10-23T07:02:18.183Z,9.19
2023-10-23T07:04:44.809Z,9.27
2023-10-23T07:07:26.113Z,9.22
2023-10-23T07:10:00.348Z,9.44
2023-10-23T07:12:27.953Z,9.33
2023-10-23T07:14:54.681Z,9.34
2023-10-23T07:17:21.520Z,9.28
2023-10-23T07:19:48.160Z,9.17
2023-10-23T07:22:14.726Z,9.18
2023-10-23T07:24:42.983Z,9.36
2023-10-23T07:27:13.415Z,9.57
2023-10-23T07:29:40.451Z,9.32
2023-10-23T07:32:07.601Z,9.30
2023-10-23T07:34:34.347Z,9.28
2023-10-23T07:37:00.975Z,9.25
2023-10-23T07:39:27.554Z,9.61
2023-10-23T07:41:54.123Z,9.48
2023-10-23T07:44:21.879Z,9.58
2023-10-23T07:46:48.837Z,9.63
2023-10-23T07:49:15.696Z,9.58
2023-10-23T07:51:42.454Z,9.86
2023-10-23T07:54:09.287Z,9.85
2023-10-23T07:56:35.947Z,9.71
2023-10-23T07:59:02.740Z,9.76
2023-10-23T08:01:29.376Z,9.91
2023-10-23T08:03:56.197Z,10.02
2023-10-23T08:06:22.986Z,9.91
2023-10-23T08:08:49.520Z,9.96
2023-10-23T08:11:16.274Z,10.12
2023-10-23T08:13:43.401Z,10.10
2023-10-23T08:16:10.294Z,10.56
2023-10-23T08:18:39.893Z,10.49
2023-10-23T08:21:17.006Z,10.39
2023-10-23T08:23:47.236Z,10.62
2023-10-23T08:26:14.088Z,10.70
2023-10-23T08:31:24.833Z,10.83
2023-10-23T08:33:57.858Z,10.86
2023-10-23T08:36:24.826Z,11.05
2023-10-23T08:38:51.469Z,10.82
2023-10-23T08:41:18.246Z,10.88
2023-10-23T08:43:45.100Z,10.94
2023-10-23T08:46:11.791Z,11.03
2023-10-23T08:48:38.539Z,10.97
2023-10-23T08:51:08.208Z,10.87
2023-10-23T08:53:39.686Z,10.96
2023-10-23T08:56:08.118Z,10.91
2023-10-23T08:58:49.192Z,10.97
2023-10-23T09:01:17.368Z,10.81
2023-10-23T09:04:04.789Z,10.91
2023-10-23T09:06:31.426Z,10.92
2023-10-23T09:08:58.331Z,10.76
2023-10-23T09:11:49.359Z,10.89
2023-10-23T09:14:26.966Z,10.94
2023-10-23T09:16:56.589Z,11.08
2023-10-23T09:19:35.193Z,11.23
2023-10-23T09:22:01.854Z,11.41
2023-10-23T09:24:28.647Z,11.37
2023-10-23T09:26:55.326Z,11.30
2023-10-23T09:29:23.475Z,11.50
2023-10-23T09:31:51.295Z,11.57
2023-10-23T09:34:22.502Z,11.79
2023-10-23T09:36:53.617Z,11.69
2023-10-23T09:39:23.504Z,12.21
2023-10-23T09:41:50.783Z,12.22
2023-10-23T09:44:18.418Z,12.31
2023-10-23T09:46:48.989Z,12.29
2023-10-23T09:49:16.525Z,12.47
2023-10-23T09:51:44.467Z,12.64
2023-10-23T09:54:17.678Z,12.39
2023-10-23T09:56:51.839Z,12.53
2023-10-23T09:59:22.422Z,12.56
2023-10-23T10:01:53.485Z,12.61
2023-10-23T10:04:30.717Z,12.73
2023-10-23T10:07:10.262Z,12.80
2023-10-23T10:09:38.934Z,12.98
2023-10-23T10:12:06.743Z,13.11
2023-10-23T10:14:34.040Z,12.79
2023-10-23T10:17:02.541Z,12.77
2023-10-23T10:19:29.280Z,12.84
2023-10-23T10:22:05.957Z,12.92
2023-10-23T10:24:35.253Z,13.04
2023-10-23T10:27:04.809Z,13.10
2023-10-23T10:29:32.534Z,13.03
2023-10-23T10:32:13.853Z,12.99
2023-10-23T10:34:47.421Z,12.85
2023-10-23T10:39:47.825Z,13.13
2023-10-23T10:42:24.887Z,13.08
2023-10-23T10:45:11.235Z,13.47
2023-10-23T10:47:38.207Z,13.27
2023-10-23T10:50:06.212Z,13.68
2023-10-23T10:52:37.453Z,13.48
2023-10-23T10:55:07.735Z,13.66
2023-10-23T10:57:35.252Z,13.79
2023-10-23T11:00:02.336Z,13.88
2023-10-23T11:02:28.892Z,13.71
2023-10-23T11:04:55.692Z,13.61
2023-10-23T11:07:26.683Z,13.77
2023-10-23T11:09:54.905Z,13.73
2023-10-23T11:12:22.439Z,14.18
2023-10-23T11:14:49.191Z,13.83
2023-10-23T11:17:16.665Z,14.00
2023-10-23T11:19:58.131Z,13.94
2023-10-23T11:22:25.395Z,13.80
2023-10-23T11:24:52.913Z,14.25
2023-10-23T11:27:19.543Z,14.34
2023-10-23T11:29:48.304Z,14.37
2023-10-23T11:32:15.623Z,14.27
2023-10-23T11:34:43.180Z,14.34
2023-10-23T11:37:11.653Z,14.55
2023-10-23T11:39:40.577Z,14.56
2023-10-23T11:42:07.418Z,14.53
2023-10-23T11:44:35.718Z,14.57
2023-10-23T11:47:05.636Z,14.81
2023-10-23T11:49:33.127Z,14.77
2023-10-23T11:52:00.925Z,14.95
2023-10-23T11:54:29.337Z,15.14
2023-10-23T11:56:59.201Z,15.09
2023-10-23T11:59:26.916Z,15.03
2023-10-23T12:01:57.813Z,14.99
2023-10-23T12:04:24.661Z,15.24
2023-10-23T12:06:51.611Z,15.32
2023-10-23T12:09:18.284Z,15.26
2023-10-23T12:11:44.799Z,15.63
2023-10-23T12:14:11.424Z,15.49
2023-10-23T12:16:38.267Z,15.54
2023-10-23T12:19:05.332Z,15.54
2023-10-23T12:21:33.028Z,15.82
2023-10-23T12:23:59.639Z,15.84
2023-10-23T12:26:26.919Z,15.88
2023-10-23T12:28:53.565Z,16.02
2023-10-23T12:31:22.625Z,16.07
2023-10-23T12:33:50.244Z,15.95
2023-10-23T12:36:16.999Z,16.00
2023-10-23T12:38:43.666Z,15.95
2023-10-23T12:41:10.260Z,15.73
2023-10-23T12:43:37.016Z,16.14
2023-10-23T12:46:03.766Z,15.91
2023-10-23T12:48:30.510Z,15.78
2023-10-23T12:50:57.261Z,15.97
2023-10-23T12:53:23.882Z,16.07
2023-10-23T12:55:50.434Z,16.19
2023-10-23T12:58:17.190Z,16.04
2023-10-23T13:00:43.740Z,16.01
2023-10-23T13:03:10.404Z,16.11
2023-10-23T13:05:37.004Z,16.23
2023-10-23T13:08:04.430Z,16.13
2023-10-23T13:10:32.060Z,16.18
2023-10-23T13:12:58.734Z,16.25
2023-10-23T13:15:26.051Z,16.38
2023-10-23T13:17:55.168Z,16.40
2023-10-23T13:21:28.767Z,16.27
2023-10-23T13:23:08.712Z,16.32
2023-10-23T13:25:35.973Z,16.28
2023-10-23T13:28:02.807Z,16.24
2023-10-23T13:30:29.946Z,16.27
2023-10-23T13:32:56.838Z,16.18
2023-10-23T13:35:23.504Z,16.06
2023-10-23T13:37:50.360Z,15.95
2023-10-23T13:40:17.100Z,15.83
2023-10-23T13:42:44.165Z,15.87
2023-10-23T13:45:11.026Z,15.89
2023-10-23T13:47:37.842Z,15.80
2023-10-23T13:50:05.225Z,15.84
2023-10-23T13:52:31.843Z,15.88
2023-10-23T13:54:59.242Z,15.80
2023-10-23T13:57:26.368Z,15.86
2023-10-23T13:59:53.073Z,15.76
2023-10-23T14:02:19.729Z,15.79
2023-10-23T14:04:46.413Z,15.86
2023-10-23T14:07:13.342Z,15.65
2023-10-23T14:09:45.440Z,15.62
2023-10-23T14:12:13.612Z,15.68
2023-10-23T14:14:40.400Z,15.54
2023-10-23T14:17:07.192Z,15.61
2023-10-23T14:19:43.483Z,15.68
2023-10-23T14:22:14.544Z,15.64
2023-10-23T14:24:41.458Z,15.69
2023-10-23T14:27:08.336Z,15.73
2023-10-23T14:29:34.943Z,15.69
2023-10-23T14:32:02.124Z,15.70
2023-10-23T14:34:29.139Z,15.70
2023-10-23T14:36:56.518Z,15.70
2023-10-23T14:39:27.686Z,15.60
2023-10-23T14:41:55.667Z,15.67
2023-10-23T14:44:24.416Z,15.69
2023-10-23T14:46:51.947Z,15.57
2023-10-23T14:49:19.077Z,15.75
2023-10-23T14:51:45.854Z,15.68
2023-10-23T14:54:12.390Z,15.73
2023-10-23T14:56:39.368Z,15.60
2023-10-23T14:59:06.005Z,15.66
2023-10-23T15:01:32.923Z,15.73
2023-10-23T15:04:01.333Z,15.67
2023-10-23T15:06:28.177Z,15.61
2023-10-23T15:08:54.853Z,15.64
2023-10-23T15:11:23.283Z,15.62
2023-10-23T15:13:50.786Z,15.54
2023-10-23T15:16:17.674Z,15.53
2023-10-23T15:18:44.300Z,15.53
2023-10-23T15:21:12.169Z,15.50
2023-10-23T15:23:39.264Z,15.47
2023-10-23T15:26:05.803Z,15.42
2023-10-23T15:28:37.062Z,15.37
2023-10-23T15:31:06.314Z,15.29
2023-10-23T15:33:35.220Z,15.09
2023-10-23T15:36:02.951Z,15.04
2023-10-23T15:38:30.512Z,15.04
2023-10-23T15:41:07.217Z,15.05
2023-10-23T15:43:34.138Z,15.03
2023-10-23T15:46:00.971Z,14.98
2023-10-23T15:48:27.694Z,14.95
2023-10-23T15:50:59.116Z,14.90
2023-10-23T15:53:28.000Z,14.91
2023-10-23T15:55:55.792Z,14.88
2023-10-23T15:58:23.692Z,14.81
2023-10-23T16:00:55.269Z,14.80
2023-10-23T16:03:22.435Z,14.81
2023-10-23T16:05:49.981Z,14.83
2023-10-23T16:08:17.982Z,14.64
2023-10-23T16:10:49.288Z,14.50
2023-10-23T16:13:17.042Z,14.31
2023-10-23T16:15:44.899Z,14.24
2023-10-23T16:18:18.639Z,14.31
2023-10-23T16:20:50.809Z,14.49
2023-10-23T16:23:17.665Z,14.48
2023-10-23T16:25:45.170Z,14.42
2023-10-23T16:28:12.067Z,14.44
2023-10-23T16:30:39.792Z,14.47
2023-10-23T16:33:07.054Z,14.43
2023-10-23T16:35:37.585Z,14.31
2023-10-23T16:38:05.068Z,14.33
2023-10-23T16:40:34.681Z,14.29
2023-10-23T16:43:02.094Z,14.25
2023-10-23T16:45:29.327Z,14.28
2023-10-23T16:47:57.037Z,14.17
2023-10-23T16:50:24.146Z,14.14
2023-10-23T16:52:52.510Z,14.30
2023-10-23T16:55:19.456Z,14.09
2023-10-23T16:57:46.464Z,14.20
2023-10-23T17:00:16.497Z,14.33
2023-10-23T17:02:44.522Z,14.35
2023-10-23T17:05:13.469Z,14.35
2023-10-23T17:07:43.576Z,14.38
2023-10-23T17:10:10.695Z,14.33
2023-10-23T17:12:37.388Z,14.22
2023-10-23T17:15:04.290Z,14.29
2023-10-23T17:17:31.014Z,14.29
2023-10-23T17:19:59.019Z,14.28
2023-10-23T17:22:25.586Z,14.20
2023-10-23T17:24:52.330Z,14.02
2023-10-23T17:27:18.948Z,14.11
2023-10-23T17:29:45.582Z,14.13
2023-10-23T17:32:12.361Z,14.05
2023-10-23T17:34:39.183Z,14.03
2023-10-23T17:37:08.758Z,14.02
2023-10-23T17:39:35.459Z,14.08
2023-10-23T17:42:02.825Z,13.89
2023-10-23T17:44:30.255Z,13.98
2023-10-23T17:46:56.897Z,14.12
2023-10-23T17:49:23.838Z,14.20
2023-10-23T17:51:51.031Z,14.08
2023-10-23T17:54:18.026Z,13.98
2023-10-23T17:56:44.610Z,14.05
2023-10-23T17:59:12.494Z,13.72
2023-10-23T18:01:41.209Z,13.57
2023-10-23T18:04:10.718Z,13.67
2023-10-23T18:06:38.230Z,13.96
2023-10-23T18:09:05.614Z,13.99
2023-10-23T18:11:33.487Z,13.96
2023-10-23T18:14:00.235Z,13.94
2023-10-23T18:16:27.022Z,14.02
2023-10-23T18:18:53.684Z,13.86
2023-10-23T18:21:20.324Z,13.77
2023-10-23T18:23:46.891Z,13.88
2023-10-23T18:26:13.466Z,13.87
2023-10-23T18:28:40.062Z,13.89
2023-10-23T18:31:06.763Z,13.76
2023-10-23T18:33:33.883Z,13.80
2023-10-23T18:36:05.393Z,13.66
2023-10-23T18:38:32.430Z,13.51
2023-10-23T18:40:59.128Z,13.65
2023-10-23T18:43:28.121Z,13.73
2023-10-23T18:45:56.298Z,13.89
2023-10-23T18:48:23.190Z,13.81
2023-10-23T18:50:59.513Z,13.81
2023-10-23T18:53:26.108Z,13.73
2023-10-23T18:55:52.890Z,13.90
2023-10-23T18:58:19.769Z,13.85
2023-10-23T19:00:46.419Z,13.77
2023-10-23T19:03:13.059Z,13.75
2023-10-23T19:05:39.852Z,13.70
2023-10-23T19:08:06.729Z,13.77
2023-10-23T19:10:33.370Z,13.80
2023-10-23T19:13:00.171Z,13.67
2023-10-23T19:15:26.777Z,13.77
2023-10-23T19:17:54.828Z,13.76
2023-10-23T19:20:23.566Z,13.69
2023-10-23T19:22:50.133Z,13.74
2023-10-23T19:25:18.003Z,13.84
2023-10-23T19:27:44.669Z,13.95
2023-10-23T19:30:13.568Z,13.91
2023-10-23T19:32:42.147Z,13.87
2023-10-23T19:35:10.424Z,13.76
2023-10-23T19:37:38.050Z,13.77
2023-10-23T19:40:05.986Z,13.70
2023-10-23T19:42:40.586Z,13.69
2023-10-23T19:45:08.765Z,13.55
2023-10-23T19:47:35.869Z,13.72
2023-10-23T19:50:04.632Z,13.80
2023-10-23T19:52:32.872Z,13.67
2023-10-23T19:55:03.165Z,13.74
2023-10-23T19:57:46.531Z,13.75
2023-10-23T20:00:13.662Z,13.79
2023-10-23T20:02:40.234Z,13.67
2023-10-23T20:05:07.092Z,13.75
2023-10-23T20:07:33.714Z,13.75
2023-10-23T20:10:00.505Z,13.75
2023-10-23T20:12:27.168Z,13.55
2023-10-23T20:14:54.343Z,13.42
2023-10-23T20:17:20.892Z,13.56
2023-10-23T20:19:47.633Z,13.69
2023-10-23T20:22:14.263Z,13.76
2023-10-23T20:24:40.793Z,13.72
2023-10-23T20:27:07.438Z,13.48
2023-10-23T20:29:34.091Z,13.56
2023-10-23T20:32:01.007Z,13.61
2023-10-23T20:34:27.635Z,13.66
2023-10-23T20:36:54.162Z,13.77
2023-10-23T20:39:20.689Z,13.76
2023-10-23T20:41:47.272Z,13.79
2023-10-23T20:44:14.039Z,13.86
2023-10-23T20:46:40.632Z,13.82
2023-10-23T20:49:07.414Z,13.80
2023-10-23T20:51:33.965Z,13.73
2023-10-23T20:54:00.553Z,13.66
2023-10-23T20:56:27.096Z,13.81
2023-10-23T20:58:54.758Z,13.73
2023-10-23T21:01:21.430Z,13.77
2023-10-23T21:03:50.863Z,13.77
2023-10-23T21:06:20.852Z,13.57
2023-10-23T21:08:47.451Z,13.74
2023-10-23T21:11:13.934Z,13.76
2023-10-23T21:13:40.595Z,13.47
2023-10-23T21:16:08.460Z,13.73
2023-10-23T21:18:35.270Z,13.70
2023-10-23T21:21:01.862Z,13.52
2023-10-23T21:23:29.948Z,13.58
2023-10-23T21:25:56.690Z,13.45
2023-10-23T21:28:26.721Z,13.52
2023-10-23T21:30:54.630Z,13.50
2023-10-23T21:33:21.304Z,13.29
2023-10-23T21:35:48.056Z,13.44
2023-10-23T21:38:14.983Z,13.42
2023-10-23T21:40:45.942Z,13.61
2023-10-23T21:43:12.960Z,13.70
2023-10-23T21:45:41.108Z,13.68
2023-10-23T21:48:08.325Z,13.66
2023-10-23T21:50:35.036Z,13.78
2023-10-23T21:53:01.816Z,13.81
2023-10-23T21:55:28.839Z,13.74
2023-10-23T21:57:55.675Z,13.74
2023-10-23T22:00:29.732Z,13.62
2023-10-23T22:02:57.498Z,13.53
2023-10-23T22:05:24.551Z,13.48
2023-10-23T22:07:52.643Z,13.35
2023-10-23T22:10:20.122Z,13.23
2023-10-23T22:12:47.154Z,13.16
2023-10-23T22:15:13.807Z,13.39
2023-10-23T22:17:40.483Z,13.30
2023-10-23T22:20:07.735Z,13.30
2023-10-23T22:22:34.580Z,13.36
2023-10-23T22:25:01.195Z,13.30
2023-10-23T22:27:28.268Z,13.42
2023-10-23T22:29:54.794Z,13.42
2023-10-23T22:32:21.393Z,13.46
2023-10-23T22:34:47.986Z,13.21
2023-10-23T22:37:58.136Z,13.16
2023-10-23T22:40:04.377Z,13.36
2023-10-23T22:42:31.010Z,13.38
2023-10-23T22:44:57.609Z,13.47
2023-10-23T22:47:24.376Z,13.65
2023-10-23T22:49:51.325Z,13.64
2023-10-23T22:52:18.152Z,13.66
2023-10-23T22:54:45.092Z,13.51
2023-10-23T22:57:13.232Z,13.52
2023-10-23T22:59:40.097Z,13.58
2023-10-23T23:02:07.294Z,13.81
2023-10-23T23:04:34.306Z,13.65
2023-10-23T23:07:01.757Z,13.58
2023-10-23T23:09:28.578Z,13.44
2023-10-23T23:11:55.893Z,13.67
2023-10-23T23:14:22.920Z,13.80
2023-10-23T23:16:50.564Z,13.82
2023-10-23T23:19:23.142Z,13.96
2023-10-23T23:21:54.819Z,14.03
2023-10-23T23:24:21.630Z,13.94
2023-10-23T23:26:48.328Z,13.69
2023-10-23T23:29:15.114Z,13.75
2023-10-23T23:31:41.680Z,13.87
2023-10-23T23:34:08.242Z,13.98
2023-10-23T23:36:34.904Z,13.80
2023-10-23T23:39:01.492Z,13.94
2023-10-23T23:41:28.060Z,13.89
2023-10-23T23:43:54.749Z,13.95
2023-10-23T23:46:21.315Z,14.03
2023-10-23T23:48:47.928Z,13.92
2023-10-23T23:51:14.467Z,13.80
2023-10-23T23:53:41.107Z,14.00
2023-10-23T23:56:07.690Z,13.89
2023-10-23T23:58:34.217Z,14.05
